This is the latest recevied weather packets stored in our database for station/object DB0BQ-11. If no packets are shown the sender has not sent any weather packets the latest 10 day(s).
| Time | Temp. | Humidity | Pressure | Rain* | Wind** | Luminosity | Snow |
|---|---|---|---|---|---|---|---|
| 1777369521 | 15.56° C | 47% | 1022.1 hPa | - | - | - | - |
| 1777365928 | 13.33° C | 52% | 1022 hPa | - | - | - | - |
| 1777362335 | 11.11° C | 59% | 1021.6 hPa | - | - | - | - |
| 1777360538 | 10° C | 62% | 1021.7 hPa | - | - | - | - |
| 1777359324 | 9.44° C | 63% | 1021.4 hPa | - | - | - | - |
| 1777358120 | 9.44° C | 63% | 1021.2 hPa | - | - | - | - |
| 1777357517 | 8.89° C | 64% | 1021.1 hPa | - | - | - | - |
| 1777352118 | 7.22° C | 73% | 1021 hPa | - | - | - | - |
| 1777349127 | 7.22° C | 70% | 1020.9 hPa | - | - | - | - |
| 1777346738 | 7.78° C | 69% | 1021 hPa | - | - | - | - |
| 1777341921 | 8.33° C | 66% | 1021.2 hPa | - | - | - | - |
| 1777337726 | 8.89° C | 63% | 1021 hPa | - | - | - | - |
| 1777336521 | 9.44° C | 62% | 1021 hPa | - | - | - | - |
| 1777332929 | 9.44° C | 60% | 1021 hPa | - | - | - | - |
| 1777331122 | 10° C | 58% | 1021 hPa | - | - | - | - |
| 1777325120 | 11.67° C | 48% | 1020.7 hPa | - | - | - | - |
| 1777320323 | 12.78° C | 48% | 1020.9 hPa | - | - | - | - |
| 1777317935 | 13.33° C | 46% | 1020.7 hPa | - | - | - | - |
| 1777317353 | 13.89° C | 47% | 1020.7 hPa | - | - | - | - |
| 1777316730 | 13.89° C | 46% | 1020.6 hPa | - | - | - | - |
| 1777315546 | 14.44° C | 44% | 1020.6 hPa | - | - | - | - |
| 1777311933 | 16.11° C | 39% | 1020.6 hPa | - | - | - | - |
| 1777311331 | 16.11° C | 38% | 1020.6 hPa | - | - | - | - |
| 1777310729 | 16.67° C | 37% | 1020.6 hPa | - | - | - | - |
| 1777310126 | 16.67° C | 36% | 1020.7 hPa | - | - | - | - |
* Rain since midnight (hover to see other rain measurements)
** Current wind speed in m/s (hover to see current wind gust speed)